sensor_id;sensor_type;location;lat;lon;timestamp;temperature;humidity
6954;DHT22;3516;47.980;8.808;2023-07-16T06:16:14;16.90;99.90
6954;DHT22;3516;47.980;8.808;2023-07-16T06:18:41;17.10;99.90
6954;DHT22;3516;47.980;8.808;2023-07-16T06:21:07;17.40;99.90
6954;DHT22;3516;47.980;8.808;2023-07-16T06:23:34;17.60;99.90
6954;DHT22;3516;47.980;8.808;2023-07-16T06:26:01;17.70;99.90
6954;DHT22;3516;47.980;8.808;2023-07-16T06:28:28;17.70;99.90
6954;DHT22;3516;47.980;8.808;2023-07-16T06:30:55;17.60;99.90
6954;DHT22;3516;47.980;8.808;2023-07-16T06:33:23;17.60;99.90
6954;DHT22;3516;47.980;8.808;2023-07-16T06:35:50;17.40;99.90
6954;DHT22;3516;47.980;8.808;2023-07-16T06:38:17;17.50;99.90
6954;DHT22;3516;47.980;8.808;2023-07-16T06:40:47;17.80;99.90
6954;DHT22;3516;47.980;8.808;2023-07-16T06:43:14;18.20;99.90
6954;DHT22;3516;47.980;8.808;2023-07-16T06:45:41;19.10;99.90
6954;DHT22;3516;47.980;8.808;2023-07-16T06:48:08;19.80;99.90
6954;DHT22;3516;47.980;8.808;2023-07-16T06:50:36;20.20;99.90
6954;DHT22;3516;47.980;8.808;2023-07-16T06:53:03;21.80;99.90
6954;DHT22;3516;47.980;8.808;2023-07-16T06:55:29;23.10;99.90
6954;DHT22;3516;47.980;8.808;2023-07-16T06:57:56;23.80;99.90
6954;DHT22;3516;47.980;8.808;2023-07-16T07:00:23;24.80;99.90
6954;DHT22;3516;47.980;8.808;2023-07-16T07:02:49;25.60;99.90
6954;DHT22;3516;47.980;8.808;2023-07-16T07:05:16;25.80;99.90
6954;DHT22;3516;47.980;8.808;2023-07-16T07:07:44;26.60;99.90
6954;DHT22;3516;47.980;8.808;2023-07-16T07:10:11;27.60;99.90
6954;DHT22;3516;47.980;8.808;2023-07-16T07:12:38;28.00;99.90
6954;DHT22;3516;47.980;8.808;2023-07-16T07:15:07;28.80;99.90
6954;DHT22;3516;47.980;8.808;2023-07-16T07:17:34;30.00;99.90
6954;DHT22;3516;47.980;8.808;2023-07-16T07:20:00;31.30;99.90
6954;DHT22;3516;47.980;8.808;2023-07-16T07:22:27;32.40;97.10
6954;DHT22;3516;47.980;8.808;2023-07-16T07:24:55;33.30;94.60
6954;DHT22;3516;47.980;8.808;2023-07-16T07:27:22;34.10;91.00
6954;DHT22;3516;47.980;8.808;2023-07-16T07:29:48;34.60;78.70
6954;DHT22;3516;47.980;8.808;2023-07-16T07:32:17;35.20;79.60
6954;DHT22;3516;47.980;8.808;2023-07-16T07:34:44;36.00;75.90
6954;DHT22;3516;47.980;8.808;2023-07-16T07:37:10;37.00;75.00
6954;DHT22;3516;47.980;8.808;2023-07-16T07:39:37;37.40;63.90
6954;DHT22;3516;47.980;8.808;2023-07-16T07:42:06;37.00;64.90
6954;DHT22;3516;47.980;8.808;2023-07-16T07:44:33;36.80;62.40
6954;DHT22;3516;47.980;8.808;2023-07-16T07:47:00;36.30;59.50
6954;DHT22;3516;47.980;8.808;2023-07-16T07:49:27;35.00;63.00
6954;DHT22;3516;47.980;8.808;2023-07-16T07:51:54;34.50;68.80
6954;DHT22;3516;47.980;8.808;2023-07-16T07:54:21;33.70;67.60
6954;DHT22;3516;47.980;8.808;2023-07-16T07:56:47;32.20;70.80
6954;DHT22;3516;47.980;8.808;2023-07-16T07:59:16;30.10;80.60
6954;DHT22;3516;47.980;8.808;2023-07-16T08:01:42;28.50;99.90
6954;DHT22;3516;47.980;8.808;2023-07-16T08:04:09;27.80;99.90
6954;DHT22;3516;47.980;8.808;2023-07-16T08:06:36;27.30;99.90
6954;DHT22;3516;47.980;8.808;2023-07-16T08:09:02;27.00;99.90
6954;DHT22;3516;47.980;8.808;2023-07-16T08:11:30;27.00;99.90
6954;DHT22;3516;47.980;8.808;2023-07-16T08:13:56;27.10;99.90
6954;DHT22;3516;47.980;8.808;2023-07-16T08:16:24;26.90;99.90
6954;DHT22;3516;47.980;8.808;2023-07-16T08:18:51;26.80;99.90
6954;DHT22;3516;47.980;8.808;2023-07-16T08:21:18;26.90;99.90
6954;DHT22;3516;47.980;8.808;2023-07-16T08:23:46;26.40;99.90
6954;DHT22;3516;47.980;8.808;2023-07-16T08:26:13;25.70;99.90
6954;DHT22;3516;47.980;8.808;2023-07-16T08:28:39;25.20;99.90
6954;DHT22;3516;47.980;8.808;2023-07-16T08:31:06;24.70;99.90
6954;DHT22;3516;47.980;8.808;2023-07-16T08:33:34;24.30;99.90
6954;DHT22;3516;47.980;8.808;2023-07-16T08:36:01;23.70;99.90
6954;DHT22;3516;47.980;8.808;2023-07-16T08:38:28;23.30;99.90
6954;DHT22;3516;47.980;8.808;2023-07-16T08:40:54;23.30;99.90
6954;DHT22;3516;47.980;8.808;2023-07-16T08:43:22;23.50;99.90
6954;DHT22;3516;47.980;8.808;2023-07-16T08:45:49;23.70;99.90
6954;DHT22;3516;47.980;8.808;2023-07-16T08:48:17;24.20;99.90
6954;DHT22;3516;47.980;8.808;2023-07-16T08:50:47;24.70;99.90
6954;DHT22;3516;47.980;8.808;2023-07-16T08:53:15;24.60;99.90
6954;DHT22;3516;47.980;8.808;2023-07-16T08:55:44;25.00;99.90
6954;DHT22;3516;47.980;8.808;2023-07-16T08:58:11;25.30;99.90
6954;DHT22;3516;47.980;8.808;2023-07-16T09:00:40;25.60;99.90
6954;DHT22;3516;47.980;8.808;2023-07-16T09:03:07;25.70;99.90
6954;DHT22;3516;47.980;8.808;2023-07-16T09:05:35;25.60;99.90
6954;DHT22;3516;47.980;8.808;2023-07-16T09:08:03;25.80;99.90
6954;DHT22;3516;47.980;8.808;2023-07-16T09:10:30;26.10;99.90
6954;DHT22;3516;47.980;8.808;2023-07-16T09:12:58;26.00;99.90
6954;DHT22;3516;47.980;8.808;2023-07-16T09:15:27;26.10;99.90
6954;DHT22;3516;47.980;8.808;2023-07-16T09:17:55;26.00;99.90
6954;DHT22;3516;47.980;8.808;2023-07-16T09:20:22;26.10;99.90
6954;DHT22;3516;47.980;8.808;2023-07-16T09:22:49;26.10;99.90
6954;DHT22;3516;47.980;8.808;2023-07-16T09:25:17;26.20;99.90
6954;DHT22;3516;47.980;8.808;2023-07-16T09:27:47;26.00;99.90
6954;DHT22;3516;47.980;8.808;2023-07-16T09:30:15;25.60;99.90
6954;DHT22;3516;47.980;8.808;2023-07-16T09:32:42;25.60;99.90
6954;DHT22;3516;47.980;8.808;2023-07-16T09:35:09;25.60;99.90
6954;DHT22;3516;47.980;8.808;2023-07-16T09:37:37;25.80;99.90
6954;DHT22;3516;47.980;8.808;2023-07-16T09:40:05;25.80;99.90
6954;DHT22;3516;47.980;8.808;2023-07-16T09:42:37;25.70;99.90
6954;DHT22;3516;47.980;8.808;2023-07-16T09:45:05;25.70;99.90
6954;DHT22;3516;47.980;8.808;2023-07-16T09:47:32;25.90;99.90
6954;DHT22;3516;47.980;8.808;2023-07-16T09:49:59;26.00;99.90
6954;DHT22;3516;47.980;8.808;2023-07-16T09:52:26;25.80;99.90
6954;DHT22;3516;47.980;8.808;2023-07-16T09:54:55;25.50;99.90
6954;DHT22;3516;47.980;8.808;2023-07-16T09:57:23;25.70;99.90
6954;DHT22;3516;47.980;8.808;2023-07-16T09:59:53;25.80;99.90
6954;DHT22;3516;47.980;8.808;2023-07-16T10:02:22;25.60;99.90
6954;DHT22;3516;47.980;8.808;2023-07-16T10:04:49;25.60;99.90
6954;DHT22;3516;47.980;8.808;2023-07-16T10:07:20;25.50;99.90
6954;DHT22;3516;47.980;8.808;2023-07-16T10:09:53;25.30;99.90
6954;DHT22;3516;47.980;8.808;2023-07-16T10:12:22;25.30;99.90
6954;DHT22;3516;47.980;8.808;2023-07-16T10:14:52;25.50;99.90
6954;DHT22;3516;47.980;8.808;2023-07-16T10:17:23;25.80;99.90
6954;DHT22;3516;47.980;8.808;2023-07-16T10:19:55;26.00;99.90
6954;DHT22;3516;47.980;8.808;2023-07-16T10:22:34;26.00;99.90
6954;DHT22;3516;47.980;8.808;2023-07-16T10:25:02;25.80;99.90
6954;DHT22;3516;47.980;8.808;2023-07-16T10:27:31;25.80;99.90
6954;DHT22;3516;47.980;8.808;2023-07-16T10:30:00;26.10;99.90
6954;DHT22;3516;47.980;8.808;2023-07-16T10:32:30;26.30;99.90
6954;DHT22;3516;47.980;8.808;2023-07-16T10:34:57;26.30;99.90
6954;DHT22;3516;47.980;8.808;2023-07-16T10:37:25;26.20;99.90
6954;DHT22;3516;47.980;8.808;2023-07-16T10:39:53;26.20;99.90
6954;DHT22;3516;47.980;8.808;2023-07-16T10:42:20;26.30;99.90
6954;DHT22;3516;47.980;8.808;2023-07-16T10:44:51;26.20;99.90
6954;DHT22;3516;47.980;8.808;2023-07-16T10:47:22;26.20;99.90
6954;DHT22;3516;47.980;8.808;2023-07-16T10:49:49;25.90;99.90
6954;DHT22;3516;47.980;8.808;2023-07-16T10:52:17;25.80;99.90
6954;DHT22;3516;47.980;8.808;2023-07-16T10:54:44;25.70;99.90
6954;DHT22;3516;47.980;8.808;2023-07-16T10:57:11;25.50;99.90
6954;DHT22;3516;47.980;8.808;2023-07-16T10:59:38;25.40;99.90
6954;DHT22;3516;47.980;8.808;2023-07-16T11:02:08;25.20;99.90
6954;DHT22;3516;47.980;8.808;2023-07-16T11:04:38;25.10;99.90
6954;DHT22;3516;47.980;8.808;2023-07-16T11:07:07;25.30;99.90
6954;DHT22;3516;47.980;8.808;2023-07-16T11:09:34;25.50;99.90
6954;DHT22;3516;47.980;8.808;2023-07-16T11:12:08;25.80;99.90
6954;DHT22;3516;47.980;8.808;2023-07-16T11:14:35;25.90;99.90
6954;DHT22;3516;47.980;8.808;2023-07-16T11:17:05;26.00;99.90
6954;DHT22;3516;47.980;8.808;2023-07-16T11:19:34;25.90;99.90
6954;DHT22;3516;47.980;8.808;2023-07-16T11:22:03;25.80;99.90
6954;DHT22;3516;47.980;8.808;2023-07-16T11:24:36;25.70;99.90
6954;DHT22;3516;47.980;8.808;2023-07-16T11:27:05;25.70;99.90
6954;DHT22;3516;47.980;8.808;2023-07-16T11:29:34;25.80;99.90
6954;DHT22;3516;47.980;8.808;2023-07-16T11:32:01;26.00;99.90
6954;DHT22;3516;47.980;8.808;2023-07-16T11:34:28;26.10;99.90
6954;DHT22;3516;47.980;8.808;2023-07-16T11:36:55;26.30;99.90
6954;DHT22;3516;47.980;8.808;2023-07-16T11:39:27;26.40;99.90
6954;DHT22;3516;47.980;8.808;2023-07-16T11:41:55;26.70;99.90
6954;DHT22;3516;47.980;8.808;2023-07-16T11:44:22;26.70;99.90
6954;DHT22;3516;47.980;8.808;2023-07-16T11:46:50;26.80;99.90
6954;DHT22;3516;47.980;8.808;2023-07-16T11:49:16;26.80;99.90
6954;DHT22;3516;47.980;8.808;2023-07-16T11:51:43;26.70;99.90
6954;DHT22;3516;47.980;8.808;2023-07-16T11:54:10;26.40;99.90
6954;DHT22;3516;47.980;8.808;2023-07-16T11:56:38;26.10;99.90
6954;DHT22;3516;47.980;8.808;2023-07-16T11:59:05;26.00;99.90
6954;DHT22;3516;47.980;8.808;2023-07-16T12:01:31;26.00;99.90
6954;DHT22;3516;47.980;8.808;2023-07-16T12:03:58;26.00;99.90
6954;DHT22;3516;47.980;8.808;2023-07-16T12:06:25;26.00;99.90
6954;DHT22;3516;47.980;8.808;2023-07-16T12:08:51;26.10;99.90
6954;DHT22;3516;47.980;8.808;2023-07-16T12:11:20;26.20;99.90
6954;DHT22;3516;47.980;8.808;2023-07-16T12:13:48;26.40;99.90
6954;DHT22;3516;47.980;8.808;2023-07-16T12:16:15;26.60;99.90
6954;DHT22;3516;47.980;8.808;2023-07-16T12:18:42;26.80;99.90
6954;DHT22;3516;47.980;8.808;2023-07-16T12:21:08;26.90;99.90
6954;DHT22;3516;47.980;8.808;2023-07-16T12:23:35;27.00;99.90
6954;DHT22;3516;47.980;8.808;2023-07-16T12:26:02;27.30;99.90
6954;DHT22;3516;47.980;8.808;2023-07-16T12:28:28;27.40;99.90
6954;DHT22;3516;47.980;8.808;2023-07-16T12:30:56;27.30;99.90
6954;DHT22;3516;47.980;8.808;2023-07-16T12:33:23;27.20;99.90
6954;DHT22;3516;47.980;8.808;2023-07-16T12:35:50;27.20;99.90
6954;DHT22;3516;47.980;8.808;2023-07-16T12:38:16;27.20;99.90
6954;DHT22;3516;47.980;8.808;2023-07-16T12:40:43;27.30;99.90
6954;DHT22;3516;47.980;8.808;2023-07-16T12:43:10;27.30;99.90
6954;DHT22;3516;47.980;8.808;2023-07-16T12:45:36;27.20;99.90
6954;DHT22;3516;47.980;8.808;2023-07-16T12:48:05;27.00;99.90
6954;DHT22;3516;47.980;8.808;2023-07-16T12:50:32;26.90;99.90
6954;DHT22;3516;47.980;8.808;2023-07-16T12:52:58;27.00;99.90
6954;DHT22;3516;47.980;8.808;2023-07-16T12:55:25;26.90;99.90
6954;DHT22;3516;47.980;8.808;2023-07-16T12:57:52;27.00;99.90
6954;DHT22;3516;47.980;8.808;2023-07-16T13:00:19;27.30;99.90
6954;DHT22;3516;47.980;8.808;2023-07-16T13:02:46;27.50;99.90
6954;DHT22;3516;47.980;8.808;2023-07-16T13:05:14;27.20;99.90
6954;DHT22;3516;47.980;8.808;2023-07-16T13:07:40;26.90;99.90
6954;DHT22;3516;47.980;8.808;2023-07-16T13:10:08;26.90;99.90
6954;DHT22;3516;47.980;8.808;2023-07-16T13:12:36;27.00;99.90
6954;DHT22;3516;47.980;8.808;2023-07-16T13:15:03;27.20;99.90
6954;DHT22;3516;47.980;8.808;2023-07-16T13:17:30;27.10;99.90
6954;DHT22;3516;47.980;8.808;2023-07-16T13:19:56;27.10;99.90
6954;DHT22;3516;47.980;8.808;2023-07-16T13:22:24;27.10;99.90
6954;DHT22;3516;47.980;8.808;2023-07-16T13:24:51;27.00;99.90
6954;DHT22;3516;47.980;8.808;2023-07-16T13:27:22;27.00;99.90
6954;DHT22;3516;47.980;8.808;2023-07-16T13:29:49;27.00;99.90
6954;DHT22;3516;47.980;8.808;2023-07-16T13:32:15;26.90;99.90
6954;DHT22;3516;47.980;8.808;2023-07-16T13:34:42;27.00;99.90
6954;DHT22;3516;47.980;8.808;2023-07-16T13:37:09;27.00;99.90
6954;DHT22;3516;47.980;8.808;2023-07-16T13:39:37;27.00;99.90
6954;DHT22;3516;47.980;8.808;2023-07-16T13:42:05;27.20;99.90
6954;DHT22;3516;47.980;8.808;2023-07-16T13:44:32;27.10;99.90
6954;DHT22;3516;47.980;8.808;2023-07-16T13:46:59;27.00;99.90
6954;DHT22;3516;47.980;8.808;2023-07-16T13:49:25;26.90;99.90
6954;DHT22;3516;47.980;8.808;2023-07-16T13:51:52;26.90;99.90
6954;DHT22;3516;47.980;8.808;2023-07-16T13:54:19;27.00;99.90
6954;DHT22;3516;47.980;8.808;2023-07-16T13:56:48;27.00;99.90
6954;DHT22;3516;47.980;8.808;2023-07-16T13:59:14;27.00;99.90
6954;DHT22;3516;47.980;8.808;2023-07-16T14:01:41;27.10;99.90
6954;DHT22;3516;47.980;8.808;2023-07-16T14:04:08;27.00;99.90
6954;DHT22;3516;47.980;8.808;2023-07-16T14:06:35;26.90;99.90
6954;DHT22;3516;47.980;8.808;2023-07-16T14:09:02;26.90;99.90
6954;DHT22;3516;47.980;8.808;2023-07-16T14:11:30;26.90;99.90
6954;DHT22;3516;47.980;8.808;2023-07-16T14:13:58;26.80;99.90
6954;DHT22;3516;47.980;8.808;2023-07-16T14:16:25;26.70;99.90
6954;DHT22;3516;47.980;8.808;2023-07-16T14:18:53;26.50;99.90
6954;DHT22;3516;47.980;8.808;2023-07-16T14:21:20;26.30;99.90
6954;DHT22;3516;47.980;8.808;2023-07-16T14:23:47;26.00;99.90
6954;DHT22;3516;47.980;8.808;2023-07-16T14:26:13;25.70;99.90
6954;DHT22;3516;47.980;8.808;2023-07-16T14:28:40;25.50;99.90
6954;DHT22;3516;47.980;8.808;2023-07-16T14:31:08;25.40;99.90
6954;DHT22;3516;47.980;8.808;2023-07-16T14:33:35;25.30;99.90
6954;DHT22;3516;47.980;8.808;2023-07-16T14:36:03;25.10;99.90
6954;DHT22;3516;47.980;8.808;2023-07-16T14:38:30;25.00;99.90
6954;DHT22;3516;47.980;8.808;2023-07-16T14:40:57;24.90;99.90
6954;DHT22;3516;47.980;8.808;2023-07-16T14:43:23;24.80;99.90
6954;DHT22;3516;47.980;8.808;2023-07-16T14:45:50;24.80;99.90
6954;DHT22;3516;47.980;8.808;2023-07-16T14:48:18;24.80;99.90
6954;DHT22;3516;47.980;8.808;2023-07-16T14:50:48;24.70;99.90
6954;DHT22;3516;47.980;8.808;2023-07-16T14:53:15;24.70;99.90
6954;DHT22;3516;47.980;8.808;2023-07-16T14:55:46;24.70;99.90
6954;DHT22;3516;47.980;8.808;2023-07-16T14:58:13;24.70;99.90
6954;DHT22;3516;47.980;8.808;2023-07-16T15:00:40;24.70;99.90
6954;DHT22;3516;47.980;8.808;2023-07-16T15:03:06;24.70;99.90
6954;DHT22;3516;47.980;8.808;2023-07-16T15:05:34;24.80;99.90
6954;DHT22;3516;47.980;8.808;2023-07-16T15:08:01;24.90;99.90
6954;DHT22;3516;47.980;8.808;2023-07-16T15:10:28;25.00;99.90
6954;DHT22;3516;47.980;8.808;2023-07-16T15:12:55;25.10;99.90
6954;DHT22;3516;47.980;8.808;2023-07-16T15:15:21;25.20;99.90
6954;DHT22;3516;47.980;8.808;2023-07-16T15:17:48;25.30;99.90
6954;DHT22;3516;47.980;8.808;2023-07-16T15:20:15;25.30;99.90
6954;DHT22;3516;47.980;8.808;2023-07-16T15:22:43;25.30;99.90
6954;DHT22;3516;47.980;8.808;2023-07-16T15:25:10;25.30;99.90
6954;DHT22;3516;47.980;8.808;2023-07-16T15:27:37;25.20;99.90
6954;DHT22;3516;47.980;8.808;2023-07-16T15:30:05;25.10;99.90
6954;DHT22;3516;47.980;8.808;2023-07-16T15:32:32;25.20;99.90
6954;DHT22;3516;47.980;8.808;2023-07-16T15:34:59;25.30;99.90
6954;DHT22;3516;47.980;8.808;2023-07-16T15:37:26;25.30;99.90
6954;DHT22;3516;47.980;8.808;2023-07-16T15:39:54;25.30;99.90
6954;DHT22;3516;47.980;8.808;2023-07-16T15:42:23;25.40;99.90
6954;DHT22;3516;47.980;8.808;2023-07-16T15:44:51;25.50;99.90
6954;DHT22;3516;47.980;8.808;2023-07-16T15:47:18;25.60;99.90
6954;DHT22;3516;47.980;8.808;2023-07-16T15:49:45;25.70;99.90
6954;DHT22;3516;47.980;8.808;2023-07-16T15:52:11;25.80;99.90
6954;DHT22;3516;47.980;8.808;2023-07-16T15:54:38;25.90;99.90
6954;DHT22;3516;47.980;8.808;2023-07-16T15:57:06;26.00;99.90
6954;DHT22;3516;47.980;8.808;2023-07-16T15:59:33;26.00;99.90
6954;DHT22;3516;47.980;8.808;2023-07-16T16:01:59;26.00;99.90
6954;DHT22;3516;47.980;8.808;2023-07-16T16:04:26;26.00;99.90
6954;DHT22;3516;47.980;8.808;2023-07-16T16:06:53;26.00;99.90
6954;DHT22;3516;47.980;8.808;2023-07-16T16:09:19;26.00;99.90
6954;DHT22;3516;47.980;8.808;2023-07-16T16:11:47;25.90;99.90
6954;DHT22;3516;47.980;8.808;2023-07-16T16:14:15;25.90;99.90
6954;DHT22;3516;47.980;8.808;2023-07-16T16:16:42;25.80;99.90
6954;DHT22;3516;47.980;8.808;2023-07-16T16:19:09;25.80;99.90
6954;DHT22;3516;47.980;8.808;2023-07-16T16:21:37;25.70;99.90
6954;DHT22;3516;47.980;8.808;2023-07-16T16:24:04;25.60;99.90
6954;DHT22;3516;47.980;8.808;2023-07-16T16:26:31;25.50;99.90
6954;DHT22;3516;47.980;8.808;2023-07-16T16:28:58;25.40;99.90
6954;DHT22;3516;47.980;8.808;2023-07-16T16:31:26;25.40;99.90
6954;DHT22;3516;47.980;8.808;2023-07-16T16:33:52;25.40;99.90
6954;DHT22;3516;47.980;8.808;2023-07-16T16:36:19;25.40;99.90
6954;DHT22;3516;47.980;8.808;2023-07-16T16:38:46;25.40;99.90
6954;DHT22;3516;47.980;8.808;2023-07-16T16:41:13;25.40;99.90
6954;DHT22;3516;47.980;8.808;2023-07-16T16:43:39;25.40;99.90
6954;DHT22;3516;47.980;8.808;2023-07-16T16:46:06;25.30;99.90
6954;DHT22;3516;47.980;8.808;2023-07-16T16:48:36;25.30;99.90
6954;DHT22;3516;47.980;8.808;2023-07-16T16:51:03;25.20;99.90
6954;DHT22;3516;47.980;8.808;2023-07-16T16:53:30;25.10;99.90
6954;DHT22;3516;47.980;8.808;2023-07-16T16:55:57;24.90;99.90
6954;DHT22;3516;47.980;8.808;2023-07-16T16:58:24;24.70;99.90
6954;DHT22;3516;47.980;8.808;2023-07-16T17:00:52;24.70;99.90
6954;DHT22;3516;47.980;8.808;2023-07-16T17:03:21;24.60;99.90
6954;DHT22;3516;47.980;8.808;2023-07-16T17:05:50;24.60;99.90
6954;DHT22;3516;47.980;8.808;2023-07-16T17:08:21;24.50;99.90
6954;DHT22;3516;47.980;8.808;2023-07-16T17:10:48;24.50;99.90
6954;DHT22;3516;47.980;8.808;2023-07-16T17:13:15;24.50;99.90
6954;DHT22;3516;47.980;8.808;2023-07-16T17:15:44;24.30;99.90
6954;DHT22;3516;47.980;8.808;2023-07-16T17:18:11;24.30;99.90
6954;DHT22;3516;47.980;8.808;2023-07-16T17:20:38;24.20;99.90
6954;DHT22;3516;47.980;8.808;2023-07-16T17:23:06;24.20;99.90
6954;DHT22;3516;47.980;8.808;2023-07-16T17:25:33;24.10;99.90
6954;DHT22;3516;47.980;8.808;2023-07-16T17:27:59;24.10;99.90
6954;DHT22;3516;47.980;8.808;2023-07-16T17:30:26;24.00;99.90
6954;DHT22;3516;47.980;8.808;2023-07-16T17:32:53;23.90;99.90
6954;DHT22;3516;47.980;8.808;2023-07-16T17:35:19;23.90;99.90
6954;DHT22;3516;47.980;8.808;2023-07-16T17:37:46;23.90;99.90
6954;DHT22;3516;47.980;8.808;2023-07-16T17:40:15;23.90;99.90
6954;DHT22;3516;47.980;8.808;2023-07-16T17:42:43;23.90;99.90
6954;DHT22;3516;47.980;8.808;2023-07-16T17:45:10;23.90;99.90
6954;DHT22;3516;47.980;8.808;2023-07-16T17:47:37;23.90;99.90
6954;DHT22;3516;47.980;8.808;2023-07-16T17:50:04;24.00;99.90
6954;DHT22;3516;47.980;8.808;2023-07-16T17:52:31;23.90;99.90
6954;DHT22;3516;47.980;8.808;2023-07-16T17:54:58;23.80;99.90
6954;DHT22;3516;47.980;8.808;2023-07-16T17:57:26;23.70;99.90
6954;DHT22;3516;47.980;8.808;2023-07-16T17:59:53;23.60;99.90
6954;DHT22;3516;47.980;8.808;2023-07-16T18:02:19;23.50;99.90
6954;DHT22;3516;47.980;8.808;2023-07-16T18:04:47;23.30;99.90
6954;DHT22;3516;47.980;8.808;2023-07-16T18:07:17;23.20;99.90
6954;DHT22;3516;47.980;8.808;2023-07-16T18:09:47;23.00;99.90
6954;DHT22;3516;47.980;8.808;2023-07-16T18:12:15;23.00;99.90
6954;DHT22;3516;47.980;8.808;2023-07-16T18:14:43;22.90;99.90
6954;DHT22;3516;47.980;8.808;2023-07-16T18:17:10;22.80;99.90
6954;DHT22;3516;47.980;8.808;2023-07-16T18:19:36;22.80;99.90
6954;DHT22;3516;47.980;8.808;2023-07-16T18:22:04;22.70;99.90
6954;DHT22;3516;47.980;8.808;2023-07-16T18:24:30;22.60;99.90
6954;DHT22;3516;47.980;8.808;2023-07-16T18:26:57;22.50;99.90
6954;DHT22;3516;47.980;8.808;2023-07-16T18:29:24;22.50;99.90
6954;DHT22;3516;47.980;8.808;2023-07-16T18:31:52;22.40;99.90
6954;DHT22;3516;47.980;8.808;2023-07-16T18:34:19;22.30;99.90
6954;DHT22;3516;47.980;8.808;2023-07-16T18:36:46;22.20;99.90
6954;DHT22;3516;47.980;8.808;2023-07-16T18:39:13;22.10;99.90
6954;DHT22;3516;47.980;8.808;2023-07-16T18:41:41;22.00;99.90
6954;DHT22;3516;47.980;8.808;2023-07-16T18:44:07;22.00;99.90
6954;DHT22;3516;47.980;8.808;2023-07-16T18:46:35;21.90;99.90
6954;DHT22;3516;47.980;8.808;2023-07-16T18:49:06;21.80;99.90
6954;DHT22;3516;47.980;8.808;2023-07-16T18:51:34;21.80;99.90
6954;DHT22;3516;47.980;8.808;2023-07-16T18:54:00;21.70;99.90
6954;DHT22;3516;47.980;8.808;2023-07-16T18:56:28;21.60;99.90
6954;DHT22;3516;47.980;8.808;2023-07-16T18:58:55;21.40;99.90
6954;DHT22;3516;47.980;8.808;2023-07-16T19:01:21;21.30;99.90
6954;DHT22;3516;47.980;8.808;2023-07-16T19:03:48;21.20;99.90
6954;DHT22;3516;47.980;8.808;2023-07-16T19:06:17;21.10;99.90
6954;DHT22;3516;47.980;8.808;2023-07-16T19:08:46;21.00;99.90
6954;DHT22;3516;47.980;8.808;2023-07-16T19:11:12;21.00;99.90
6954;DHT22;3516;47.980;8.808;2023-07-16T19:13:39;20.90;99.90
6954;DHT22;3516;47.980;8.808;2023-07-16T19:16:06;20.80;99.90
6954;DHT22;3516;47.980;8.808;2023-07-16T19:18:33;20.70;99.90
6954;DHT22;3516;47.980;8.808;2023-07-16T19:20:59;20.60;99.90
6954;DHT22;3516;47.980;8.808;2023-07-16T19:23:27;20.50;99.90
6954;DHT22;3516;47.980;8.808;2023-07-16T19:25:54;20.40;99.90
6954;DHT22;3516;47.980;8.808;2023-07-16T19:28:21;20.20;99.90
6954;DHT22;3516;47.980;8.808;2023-07-16T19:30:47;20.10;99.90
6954;DHT22;3516;47.980;8.808;2023-07-16T19:33:14;19.90;99.90
6954;DHT22;3516;47.980;8.808;2023-07-16T19:35:41;19.80;99.90
6954;DHT22;3516;47.980;8.808;2023-07-16T19:38:08;19.60;99.90
6954;DHT22;3516;47.980;8.808;2023-07-16T19:40:36;19.50;99.90
6954;DHT22;3516;47.980;8.808;2023-07-16T19:43:03;19.30;99.90
6954;DHT22;3516;47.980;8.808;2023-07-16T19:45:29;19.20;99.90
6954;DHT22;3516;47.980;8.808;2023-07-16T19:47:56;19.10;99.90
6954;DHT22;3516;47.980;8.808;2023-07-16T19:50:28;18.90;99.90
6954;DHT22;3516;47.980;8.808;2023-07-16T19:52:55;18.90;99.90
6954;DHT22;3516;47.980;8.808;2023-07-16T19:55:22;18.70;99.90
6954;DHT22;3516;47.980;8.808;2023-07-16T19:57:50;18.70;99.90
6954;DHT22;3516;47.980;8.808;2023-07-16T20:00:17;18.60;99.90
6954;DHT22;3516;47.980;8.808;2023-07-16T20:02:44;18.60;99.90
6954;DHT22;3516;47.980;8.808;2023-07-16T20:05:11;18.50;99.90
6954;DHT22;3516;47.980;8.808;2023-07-16T20:07:38;18.50;99.90
6954;DHT22;3516;47.980;8.808;2023-07-16T20:10:06;18.50;99.90
6954;DHT22;3516;47.980;8.808;2023-07-16T20:12:33;18.50;99.90
6954;DHT22;3516;47.980;8.808;2023-07-16T20:15:02;18.60;99.90
6954;DHT22;3516;47.980;8.808;2023-07-16T20:17:29;18.60;99.90
6954;DHT22;3516;47.980;8.808;2023-07-16T20:19:56;18.60;99.90
6954;DHT22;3516;47.980;8.808;2023-07-16T20:22:23;18.50;99.90
6954;DHT22;3516;47.980;8.808;2023-07-16T20:24:50;18.50;99.90
6954;DHT22;3516;47.980;8.808;2023-07-16T20:27:17;18.50;99.90
6954;DHT22;3516;47.980;8.808;2023-07-16T20:29:44;18.50;99.90
6954;DHT22;3516;47.980;8.808;2023-07-16T20:32:13;18.40;99.90
6954;DHT22;3516;47.980;8.808;2023-07-16T20:34:39;18.30;99.90
6954;DHT22;3516;47.980;8.808;2023-07-16T20:37:06;18.20;99.90
6954;DHT22;3516;47.980;8.808;2023-07-16T20:39:33;18.20;99.90
6954;DHT22;3516;47.980;8.808;2023-07-16T20:41:59;18.10;99.90
